Time;durP1;ratioP1;P1;durP2;ratioP2;P2;SDS_P1;SDS_P2;PMS_P1;PMS_P2;Temp;Humidity;BMP_temperature;BMP_pressure;BME280_temperature;BME280_humidity;BME280_pressure;Samples;Min_cycle;Max_cycle;Signal;HPM_P1;HPM_P2
2024/04/17 00:01:31;;;;;;;2.47;0.70;;;6.50;6.90;;;;;;5298771;26;20243;-71
2024/04/17 00:03:57;;;;;;;1.60;0.63;;;6.40;7.10;;;;;;5300054;26;20301;-71
2024/04/17 00:06:23;;;;;;;2.00;0.80;;;6.40;8.10;;;;;;5300585;26;20457;-71
2024/04/17 00:08:49;;;;;;;2.20;0.90;;;6.40;8.10;;;;;;5298751;27;20335;-71
2024/04/17 00:11:14;;;;;;;2.00;1.17;;;6.40;8.10;;;;;;5301085;26;20477;-71
2024/04/17 00:13:40;;;;;;;1.53;0.50;;;6.40;8.10;;;;;;5300375;26;20231;-71
2024/04/17 00:16:05;;;;;;;1.60;0.60;;;6.40;8.10;;;;;;5300435;26;20269;-71
2024/04/17 00:18:31;;;;;;;2.30;0.73;;;6.40;8.10;;;;;;5300423;26;20295;-71
2024/04/17 00:20:57;;;;;;;3.40;1.00;;;6.40;8.10;;;;;;5300310;26;20289;-71
2024/04/17 00:23:22;;;;;;;1.70;0.57;;;6.50;8.20;;;;;;5300206;26;20225;-70
2024/04/17 00:25:48;;;;;;;1.80;0.83;;;6.40;8.10;;;;;;5297984;26;20253;-70
2024/04/17 00:28:14;;;;;;;2.67;0.80;;;6.50;8.80;;;;;;5298060;26;20235;-72
2024/04/17 00:30:40;;;;;;;1.67;0.77;;;6.50;8.20;;;;;;5298503;26;20293;-71
2024/04/17 00:33:05;;;;;;;1.83;0.73;;;6.50;9.10;;;;;;5299924;26;20559;-71
2024/04/17 00:35:31;;;;;;;1.57;0.60;;;6.50;8.20;;;;;;5299995;26;20219;-71
2024/04/17 00:37:56;;;;;;;1.70;0.63;;;6.60;8.90;;;;;;5298492;26;20290;-71
2024/04/17 00:40:22;;;;;;;1.90;0.83;;;6.60;7.90;;;;;;5298482;26;20294;-71
2024/04/17 00:42:49;;;;;;;2.10;0.80;;;6.50;8.20;;;;;;5299837;26;20227;-71
2024/04/17 00:45:14;;;;;;;2.17;1.00;;;6.50;8.40;;;;;;5299482;26;20502;-71
2024/04/17 00:47:41;;;;;;;1.90;0.90;;;6.60;8.20;;;;;;5299673;27;20450;-71
2024/04/17 00:50:08;;;;;;;2.07;1.00;;;6.60;8.20;;;;;;5300098;26;20277;-71
2024/04/17 00:52:35;;;;;;;3.23;1.17;;;6.60;8.20;;;;;;5355812;26;20470;-71
2024/04/17 00:55:02;;;;;;;3.03;1.07;;;6.60;8.20;;;;;;5299462;26;20457;-72
2024/04/17 00:57:29;;;;;;;1.90;0.90;;;6.60;8.20;;;;;;5299880;26;20498;-71
2024/04/17 00:59:55;;;;;;;1.60;0.67;;;6.60;8.20;;;;;;5297741;26;20848;-71
2024/04/17 01:02:21;;;;;;;1.80;0.80;;;6.60;8.20;;;;;;5299433;26;20469;-71
2024/04/17 01:04:46;;;;;;;2.10;0.90;;;6.60;8.20;;;;;;5299519;26;20449;-71
2024/04/17 01:07:12;;;;;;;1.70;0.70;;;6.60;8.20;;;;;;5297747;26;20312;-72
2024/04/17 01:09:37;;;;;;;1.97;1.03;;;6.60;8.20;;;;;;5298649;26;20277;-71
2024/04/17 01:12:05;;;;;;;1.90;0.70;;;6.50;8.20;;;;;;5299697;26;20239;-71
2024/04/17 01:14:30;;;;;;;2.13;0.80;;;6.50;8.20;;;;;;5299430;26;20594;-71
2024/04/17 01:16:56;;;;;;;2.63;1.13;;;6.60;8.20;;;;;;5299386;26;20454;-70
2024/04/17 01:19:22;;;;;;;1.90;0.90;;;6.50;8.20;;;;;;5299466;26;20277;-71
2024/04/17 01:21:47;;;;;;;2.40;1.10;;;6.50;9.00;;;;;;5299428;26;20231;-71
2024/04/17 01:24:13;;;;;;;2.57;0.90;;;6.50;9.50;;;;;;5299135;26;20562;-70
2024/04/17 01:26:39;;;;;;;1.70;0.70;;;6.60;9.80;;;;;;5299584;26;20235;-70
2024/04/17 01:29:04;;;;;;;2.10;1.00;;;6.50;9.90;;;;;;5299327;26;20448;-71
2024/04/17 01:31:30;;;;;;;2.33;0.73;;;6.50;10.50;;;;;;5299210;26;20684;-71
2024/04/17 01:33:55;;;;;;;2.10;1.10;;;6.50;11.90;;;;;;5298817;26;20223;-71
2024/04/17 01:36:21;;;;;;;1.87;0.90;;;6.50;12.20;;;;;;5297230;26;20320;-71
2024/04/17 01:38:47;;;;;;;1.90;0.83;;;6.50;11.90;;;;;;5298266;26;20844;-70
2024/04/17 01:41:13;;;;;;;2.77;1.03;;;6.50;12.60;;;;;;5301070;26;20254;-71
2024/04/17 01:43:39;;;;;;;2.40;0.97;;;6.50;13.80;;;;;;5302402;27;20646;-71
2024/04/17 01:46:04;;;;;;;2.20;1.00;;;6.50;13.80;;;;;;5302668;26;20833;-70
2024/04/17 01:48:30;;;;;;;1.90;0.90;;;6.50;14.50;;;;;;5302576;26;20223;-71
2024/04/17 01:50:55;;;;;;;3.83;1.03;;;6.50;14.40;;;;;;5303038;26;20769;-70
2024/04/17 01:53:21;;;;;;;2.27;1.03;;;6.40;16.30;;;;;;5301019;26;20780;-71
2024/04/17 01:55:46;;;;;;;2.10;1.07;;;6.30;17.70;;;;;;5303779;26;20338;-71
2024/04/17 01:58:12;;;;;;;1.80;0.80;;;6.30;17.50;;;;;;5304141;26;20222;-71
2024/04/17 02:00:38;;;;;;;2.30;0.97;;;6.30;19.10;;;;;;5304028;26;20325;-72
2024/04/17 02:03:04;;;;;;;1.80;0.83;;;6.30;19.70;;;;;;5303558;26;20227;-70
2024/04/17 02:05:30;;;;;;;2.77;1.30;;;6.10;20.80;;;;;;5302577;26;20578;-71
2024/04/17 02:07:56;;;;;;;3.10;1.00;;;6.20;21.70;;;;;;5302520;26;20831;-70
2024/04/17 02:10:22;;;;;;;2.83;1.10;;;6.10;21.80;;;;;;5302524;26;20772;-70
2024/04/17 02:12:48;;;;;;;2.00;0.90;;;6.10;23.70;;;;;;5302493;27;20454;-70
2024/04/17 02:15:13;;;;;;;6.53;1.20;;;6.10;23.90;;;;;;5302230;26;20226;-71
2024/04/17 02:17:39;;;;;;;4.43;1.10;;;6.10;24.50;;;;;;5300359;26;20568;-71
2024/04/17 02:20:05;;;;;;;3.57;1.17;;;6.10;23.50;;;;;;5302577;26;20335;-70
2024/04/17 02:22:31;;;;;;;1.90;0.90;;;6.00;23.50;;;;;;5302154;26;20243;-71
2024/04/17 02:24:56;;;;;;;2.30;1.03;;;6.00;24.40;;;;;;5300673;26;20518;-69
2024/04/17 02:27:22;;;;;;;2.50;1.00;;;5.90;25.00;;;;;;5302624;26;20335;-70
2024/04/17 02:29:47;;;;;;;2.60;0.90;;;5.90;25.60;;;;;;5302286;26;20344;-71
2024/04/17 02:32:14;;;;;;;2.03;0.67;;;5.90;25.90;;;;;;5302024;26;20240;-71
2024/04/17 02:34:40;;;;;;;1.70;0.80;;;5.90;24.80;;;;;;5301761;26;20223;-70
2024/04/17 02:37:05;;;;;;;1.67;0.90;;;5.90;26.00;;;;;;5302000;26;20504;-70
2024/04/17 02:39:31;;;;;;;1.80;0.90;;;5.90;26.40;;;;;;5302460;26;20223;-70
2024/04/17 02:41:56;;;;;;;1.63;0.60;;;5.80;25.00;;;;;;5302294;26;20346;-70
2024/04/17 02:44:22;;;;;;;2.23;0.70;;;5.80;25.30;;;;;;5301987;26;20331;-71
2024/04/17 02:46:47;;;;;;;1.80;0.60;;;5.80;25.40;;;;;;5300417;26;20267;-71
2024/04/17 02:49:13;;;;;;;1.50;0.60;;;5.80;25.10;;;;;;5301560;26;20609;-70
2024/04/17 02:51:39;;;;;;;1.90;0.73;;;5.80;24.80;;;;;;5300050;26;20285;-69
2024/04/17 02:54:04;;;;;;;2.33;0.63;;;5.80;24.50;;;;;;5301616;26;20636;-71
2024/04/17 02:56:30;;;;;;;1.77;0.90;;;5.80;24.80;;;;;;5301929;26;20226;-71
2024/04/17 02:58:55;;;;;;;1.60;0.53;;;5.80;24.80;;;;;;5300313;26;20287;-71
2024/04/17 03:01:21;;;;;;;2.90;0.50;;;5.80;23.80;;;;;;5302025;26;20280;-70
2024/04/17 03:03:46;;;;;;;1.60;0.50;;;5.80;23.20;;;;;;5301469;26;20219;-70
2024/04/17 03:06:12;;;;;;;1.57;0.70;;;5.80;24.10;;;;;;5301339;26;20270;-71
2024/04/17 03:08:37;;;;;;;1.87;0.60;;;5.80;22.00;;;;;;5301767;26;20653;-71
2024/04/17 03:11:03;;;;;;;1.60;0.60;;;5.80;22.80;;;;;;5301524;26;20235;-70
2024/04/17 03:13:30;;;;;;;1.60;0.60;;;5.80;22.10;;;;;;5301739;26;20274;-70
2024/04/17 03:16:01;;;;;;;1.50;0.53;;;5.80;22.20;;;;;;5301775;26;20535;-71
2024/04/17 03:18:27;;;;;;;2.13;0.83;;;5.70;21.50;;;;;;5301724;26;20580;-71
2024/04/17 03:20:52;;;;;;;1.67;0.60;;;5.70;22.10;;;;;;5302019;26;20476;-71
2024/04/17 03:23:18;;;;;;;1.60;0.73;;;5.70;21.70;;;;;;5300409;26;20401;-71
2024/04/17 03:25:54;;;;;;;1.70;0.70;;;5.80;22.30;;;;;;5307119;26;20227;-70
2024/04/17 03:28:19;;;;;;;1.83;0.80;;;5.80;23.80;;;;;;5303396;26;20559;-70
2024/04/17 03:30:45;;;;;;;1.70;0.70;;;5.80;22.70;;;;;;5309405;26;20469;-71
2024/04/17 03:33:10;;;;;;;2.40;1.00;;;5.80;22.40;;;;;;5310328;26;20268;-71
2024/04/17 03:35:36;;;;;;;2.00;0.80;;;5.80;22.20;;;;;;5299920;26;20626;-71
2024/04/17 03:38:01;;;;;;;1.60;0.50;;;5.80;21.60;;;;;;5301529;26;20223;-70
2024/04/17 03:40:27;;;;;;;2.00;0.70;;;5.80;21.70;;;;;;5300942;26;20331;-70
2024/04/17 03:42:52;;;;;;;1.93;0.73;;;5.80;21.80;;;;;;5301371;26;20321;-70
2024/04/17 03:45:18;;;;;;;2.43;0.90;;;5.80;22.60;;;;;;5301274;26;20226;-70
2024/04/17 03:47:44;;;;;;;1.80;0.90;;;5.80;22.70;;;;;;5301107;26;20237;-70
2024/04/17 03:50:09;;;;;;;4.53;1.53;;;5.80;22.50;;;;;;5301088;26;20457;-70
2024/04/17 03:52:35;;;;;;;3.40;1.13;;;5.80;21.80;;;;;;5301096;26;20614;-70
2024/04/17 03:55:00;;;;;;;2.10;1.00;;;5.70;22.90;;;;;;5300950;26;20341;-71
2024/04/17 03:57:30;;;;;;;2.00;0.60;;;5.70;22.90;;;;;;5299427;26;20265;-71
2024/04/17 03:59:55;;;;;;;2.03;0.97;;;5.70;24.20;;;;;;5300957;26;20284;-71
2024/04/17 04:02:22;;;;;;;2.07;0.83;;;5.70;24.70;;;;;;5297649;26;20474;-70
2024/04/17 04:04:48;;;;;;;1.90;0.83;;;5.70;24.70;;;;;;5300471;26;20341;-70
2024/04/17 04:07:13;;;;;;;1.70;0.70;;;5.70;23.50;;;;;;5300597;26;21031;-71
2024/04/17 04:09:39;;;;;;;2.63;1.40;;;5.80;23.50;;;;;;5300620;26;20225;-71
2024/04/17 04:12:05;;;;;;;1.80;1.07;;;5.80;23.30;;;;;;5300606;26;20717;-71
2024/04/17 04:14:30;;;;;;;1.80;0.90;;;5.70;23.40;;;;;;5300646;26;20228;-71
2024/04/17 04:16:56;;;;;;;2.10;0.90;;;5.70;24.00;;;;;;5301404;26;20906;-71
2024/04/17 04:19:22;;;;;;;1.70;0.80;;;5.70;23.80;;;;;;5298780;27;20233;-70
2024/04/17 04:21:47;;;;;;;2.07;1.00;;;5.80;24.40;;;;;;5300599;26;20326;-71
2024/04/17 04:24:13;;;;;;;3.27;1.00;;;5.70;23.50;;;;;;5300253;26;20234;-70
2024/04/17 04:26:38;;;;;;;1.60;0.53;;;5.70;24.70;;;;;;5300548;26;20241;-70
2024/04/17 04:29:04;;;;;;;1.70;0.67;;;5.70;24.70;;;;;;5300308;26;20705;-70
2024/04/17 04:31:30;;;;;;;2.13;0.80;;;5.70;23.40;;;;;;5298414;26;20250;-70
2024/04/17 04:33:56;;;;;;;2.10;0.90;;;5.60;24.70;;;;;;5300140;26;20269;-71
2024/04/17 04:36:21;;;;;;;1.60;0.60;;;5.60;25.70;;;;;;5300283;26;20764;-73
2024/04/17 04:38:47;;;;;;;3.43;1.13;;;5.60;26.40;;;;;;5300319;26;20237;-71
2024/04/17 04:41:12;;;;;;;2.87;1.10;;;5.60;25.40;;;;;;5300209;26;20245;-70
2024/04/17 04:43:38;;;;;;;1.60;0.53;;;5.70;25.90;;;;;;5300051;26;20582;-71
2024/04/17 04:46:04;;;;;;;1.70;0.67;;;5.60;26.30;;;;;;5300842;26;20319;-71
2024/04/17 04:48:29;;;;;;;2.57;0.87;;;5.60;26.40;;;;;;5300301;26;20246;-71
2024/04/17 04:50:55;;;;;;;2.20;1.03;;;5.60;26.20;;;;;;5298694;26;20296;-72
2024/04/17 04:53:20;;;;;;;1.80;0.90;;;5.60;28.70;;;;;;5298717;26;20234;-70
2024/04/17 04:56:01;;;;;;;4.10;1.00;;;5.70;28.00;;;;;;5298322;26;20758;-71
2024/04/17 04:58:26;;;;;;;4.70;1.07;;;5.60;28.70;;;;;;5299922;26;20937;-71
2024/04/17 05:00:52;;;;;;;1.73;0.80;;;5.50;27.60;;;;;;5300205;26;20472;-70
2024/04/17 05:03:18;;;;;;;2.90;1.00;;;5.50;28.70;;;;;;5299846;26;20336;-69
2024/04/17 05:05:44;;;;;;;1.60;0.60;;;5.40;29.00;;;;;;5300071;26;20285;-70
2024/04/17 05:08:09;;;;;;;1.70;0.80;;;5.30;28.00;;;;;;5298237;26;20968;-70
2024/04/17 05:10:35;;;;;;;1.77;0.57;;;5.20;28.50;;;;;;5300028;26;21005;-72
2024/04/17 05:13:00;;;;;;;2.63;1.00;;;5.00;27.30;;;;;;5300869;26;20225;-71
2024/04/17 05:15:26;;;;;;;2.23;0.70;;;4.80;27.60;;;;;;5301714;27;20226;-71
2024/04/17 05:17:52;;;;;;;1.90;0.60;;;4.70;28.90;;;;;;5301443;26;20237;-71
2024/04/17 05:20:17;;;;;;;1.50;0.60;;;4.60;29.30;;;;;;5303128;26;20224;-71
2024/04/17 05:22:43;;;;;;;3.53;0.63;;;4.50;30.00;;;;;;5303439;26;20309;-71
2024/04/17 05:25:08;;;;;;;1.60;0.50;;;4.40;28.70;;;;;;5303011;26;20239;-72
2024/04/17 05:27:34;;;;;;;1.50;0.70;;;4.30;29.40;;;;;;5301480;26;20240;-72
2024/04/17 05:29:59;;;;;;;1.50;0.60;;;4.10;30.00;;;;;;5302213;26;20238;-71
2024/04/17 05:32:25;;;;;;;1.40;0.50;;;4.00;29.70;;;;;;5306453;27;20237;-71
2024/04/17 05:34:52;;;;;;;1.83;0.80;;;3.90;30.00;;;;;;5306214;26;20227;-72
2024/04/17 05:37:17;;;;;;;1.60;0.68;;;4.00;31.30;;;;;;5305843;26;20802;-70
2024/04/17 05:39:42;;;;;;;1.50;0.50;;;4.00;30.70;;;;;;5301183;26;20240;-70
2024/04/17 05:42:08;;;;;;;1.40;0.50;;;3.90;30.00;;;;;;5302902;26;20231;-71
2024/04/17 05:44:34;;;;;;;2.00;0.53;;;4.00;29.70;;;;;;5300812;26;20239;-71
2024/04/17 05:46:59;;;;;;;1.50;0.60;;;4.00;29.70;;;;;;5303363;26;20305;-71
2024/04/17 05:49:25;;;;;;;2.10;0.50;;;4.10;29.80;;;;;;5303126;26;20700;-70
2024/04/17 05:51:50;;;;;;;2.40;0.63;;;4.10;29.90;;;;;;5303137;26;20239;-70
2024/04/17 05:54:16;;;;;;;1.50;0.50;;;4.20;28.70;;;;;;5300716;26;20240;-71
2024/04/17 05:56:42;;;;;;;2.95;0.60;;;4.30;28.70;;;;;;5302615;27;20231;-70
2024/04/17 05:59:10;;;;;;;1.60;0.70;;;4.20;27.80;;;;;;5302711;26;20279;-70
2024/04/17 06:01:35;;;;;;;2.05;0.90;;;4.40;28.80;;;;;;5302679;27;20236;-72
2024/04/17 06:04:01;;;;;;;3.90;1.43;;;4.40;28.00;;;;;;5302752;26;20229;-71
2024/04/17 06:06:26;;;;;;;3.10;1.47;;;4.40;30.00;;;;;;5303115;26;20363;-70
2024/04/17 06:08:52;;;;;;;3.83;1.23;;;4.50;32.00;;;;;;5302452;26;20564;-70
2024/04/17 06:11:17;;;;;;;3.13;1.97;;;4.50;32.50;;;;;;5300482;26;20247;-70
2024/04/17 06:13:43;;;;;;;1.50;0.60;;;4.40;33.00;;;;;;5302369;26;20228;-71
2024/04/17 06:16:09;;;;;;;2.23;1.10;;;4.30;30.00;;;;;;5302964;26;20333;-71
2024/04/17 06:18:34;;;;;;;2.77;1.10;;;4.30;32.60;;;;;;5302767;26;20563;-71
2024/04/17 06:21:00;;;;;;;3.60;1.00;;;4.30;32.40;;;;;;5303596;26;20269;-73
2024/04/17 06:23:25;;;;;;;2.57;1.30;;;4.20;31.50;;;;;;5300379;27;20284;-73
2024/04/17 06:25:51;;;;;;;2.73;1.00;;;4.30;31.20;;;;;;5301121;26;20446;-72
2024/04/17 06:28:16;;;;;;;4.80;1.80;;;4.30;29.70;;;;;;5302335;26;20233;-72
2024/04/17 06:30:42;;;;;;;2.63;1.43;;;4.40;30.30;;;;;;5302173;26;20240;-73
2024/04/17 06:33:08;;;;;;;2.30;0.90;;;4.50;30.10;;;;;;5300351;26;20269;-73
2024/04/17 06:35:33;;;;;;;1.97;0.90;;;4.60;30.80;;;;;;5300084;26;20235;-73
2024/04/17 06:37:59;;;;;;;2.20;0.90;;;4.60;28.10;;;;;;5302284;26;20287;-73
2024/04/17 06:40:25;;;;;;;6.07;0.90;;;4.60;26.90;;;;;;5300071;26;20229;-72
2024/04/17 06:42:50;;;;;;;1.80;0.80;;;4.60;26.70;;;;;;5301819;26;20654;-71
2024/04/17 06:45:16;;;;;;;4.17;1.40;;;4.70;26.20;;;;;;5301862;26;20281;-72
2024/04/17 06:47:43;;;;;;;3.30;1.73;;;4.80;25.20;;;;;;5302035;26;20240;-72
2024/04/17 06:50:09;;;;;;;2.45;0.82;;;4.80;24.70;;;;;;5301743;26;20228;-72
2024/04/17 06:52:35;;;;;;;2.60;1.27;;;4.70;25.60;;;;;;5301591;26;20741;-72
2024/04/17 06:55:00;;;;;;;1.90;0.87;;;4.70;27.10;;;;;;5301243;26;20229;-72
2024/04/17 06:57:26;;;;;;;1.80;1.07;;;4.90;26.60;;;;;;5302037;26;20656;-73
2024/04/17 06:59:51;;;;;;;2.80;1.40;;;4.80;23.90;;;;;;5301862;26;20236;-71
2024/04/17 07:02:17;;;;;;;2.93;1.50;;;4.90;24.20;;;;;;5301879;26;20232;-72
2024/04/17 07:04:42;;;;;;;2.30;1.27;;;5.10;24.30;;;;;;5301846;26;20522;-72
2024/04/17 07:07:08;;;;;;;2.30;1.20;;;5.20;23.40;;;;;;5301562;26;20223;-72
2024/04/17 07:09:34;;;;;;;2.40;1.50;;;5.00;20.10;;;;;;5301470;26;20274;-72
2024/04/17 07:11:59;;;;;;;2.60;1.30;;;4.90;21.80;;;;;;5301463;26;20627;-72
2024/04/17 07:14:25;;;;;;;2.53;1.27;;;5.00;21.20;;;;;;5301289;26;20224;-71
2024/04/17 07:16:50;;;;;;;1.90;1.20;;;4.80;23.00;;;;;;5301670;26;20224;-72
2024/04/17 07:19:16;;;;;;;2.30;1.30;;;4.70;24.40;;;;;;5305326;26;20229;-72
2024/04/17 07:21:42;;;;;;;2.67;1.20;;;4.70;26.10;;;;;;5299539;26;20251;-72
2024/04/17 07:24:07;;;;;;;2.47;1.33;;;4.60;25.10;;;;;;5300978;26;20701;-71
2024/04/17 07:26:33;;;;;;;2.23;1.10;;;4.50;26.80;;;;;;5300633;26;20226;-72
2024/04/17 07:28:58;;;;;;;2.17;0.80;;;4.40;27.60;;;;;;5301655;26;20227;-73
2024/04/17 07:31:24;;;;;;;1.87;0.90;;;4.30;27.90;;;;;;5301728;26;20340;-73
2024/04/17 07:33:50;;;;;;;2.10;1.00;;;4.30;27.90;;;;;;5300857;26;20237;-73
2024/04/17 07:36:16;;;;;;;2.40;1.33;;;4.30;28.80;;;;;;5299690;26;20269;-72
2024/04/17 07:38:42;;;;;;;1.80;0.77;;;4.30;27.90;;;;;;5304370;26;20276;-73
2024/04/17 07:41:08;;;;;;;2.70;1.25;;;4.40;28.00;;;;;;5352301;21;20242;-69
2024/04/17 07:43:34;;;;;;;1.90;1.20;;;4.40;28.00;;;;;;5357705;26;20280;-71
2024/04/17 07:46:00;;;;;;;2.40;1.33;;;4.30;27.90;;;;;;5388611;26;20500;-71
2024/04/17 07:48:26;;;;;;;2.30;1.40;;;4.30;27.00;;;;;;5358979;26;20236;-71
2024/04/17 07:50:52;;;;;;;3.33;1.80;;;4.40;28.00;;;;;;5390374;26;20220;-71
2024/04/17 07:53:18;;;;;;;3.40;1.67;;;4.50;28.00;;;;;;5389922;26;20512;-70
2024/04/17 07:55:43;;;;;;;3.10;1.83;;;4.60;26.70;;;;;;5390456;26;20270;-70
2024/04/17 07:58:09;;;;;;;3.80;1.93;;;4.60;25.60;;;;;;5389980;26;20232;-69
2024/04/17 08:00:36;;;;;;;3.20;2.10;;;4.60;25.00;;;;;;5357741;26;20301;-70
2024/04/17 08:03:02;;;;;;;2.30;1.42;;;4.50;24.00;;;;;;5389000;26;20275;-70
2024/04/17 08:05:28;;;;;;;4.17;2.33;;;4.40;24.70;;;;;;5358034;26;20323;-70
2024/04/17 08:07:54;;;;;;;2.83;1.73;;;4.50;26.20;;;;;;5390388;26;20216;-70
2024/04/17 08:10:20;;;;;;;3.50;1.53;;;4.60;26.50;;;;;;5360639;26;20638;-69
2024/04/17 08:12:47;;;;;;;3.20;1.40;;;4.50;25.80;;;;;;5361061;26;20233;-71
2024/04/17 08:15:13;;;;;;;2.90;1.50;;;4.50;25.30;;;;;;5358209;26;20227;-71
2024/04/17 08:17:39;;;;;;;2.25;1.10;;;4.40;25.60;;;;;;5357273;26;20233;-71
2024/04/17 08:20:05;;;;;;;2.60;1.20;;;4.20;25.90;;;;;;5359034;26;20230;-71
2024/04/17 08:22:31;;;;;;;2.40;1.35;;;4.30;27.90;;;;;;5358298;26;20630;-71
2024/04/17 08:24:56;;;;;;;2.27;1.03;;;4.40;26.10;;;;;;5388642;26;20217;-71
2024/04/17 08:27:22;;;;;;;2.43;1.33;;;4.60;24.80;;;;;;5388123;26;20576;-69
2024/04/17 08:29:48;;;;;;;3.27;1.43;;;4.60;22.10;;;;;;5388562;26;20225;-70
2024/04/17 08:32:13;;;;;;;2.53;1.43;;;4.40;20.70;;;;;;5388957;26;20241;-70
2024/04/17 08:34:39;;;;;;;1.93;0.97;;;4.20;21.70;;;;;;5355993;26;20217;-70
2024/04/17 08:37:05;;;;;;;2.23;1.30;;;4.10;23.40;;;;;;5356772;26;20225;-70
2024/04/17 08:39:31;;;;;;;3.60;1.80;;;4.10;23.20;;;;;;5327929;26;20226;-69
2024/04/17 08:42:03;;;;;;;2.70;1.30;;;4.20;24.50;;;;;;5357943;26;20306;-69
2024/04/17 08:44:30;;;;;;;2.00;0.80;;;4.30;23.80;;;;;;5387526;26;20377;-70
2024/04/17 08:46:56;;;;;;;2.17;1.00;;;4.20;20.50;;;;;;5387442;26;20229;-71
2024/04/17 08:49:22;;;;;;;2.17;1.20;;;4.50;20.50;;;;;;5359399;26;20221;-71
2024/04/17 08:51:48;;;;;;;3.17;0.98;;;4.30;19.50;;;;;;5388676;26;20650;-72
2024/04/17 08:54:15;;;;;;;4.77;1.70;;;4.20;19.60;;;;;;5389651;26;20371;-72
2024/04/17 08:56:42;;;;;;;2.20;0.88;;;4.20;20.20;;;;;;5387247;26;20548;-71
2024/04/17 08:59:09;;;;;;;2.17;1.00;;;4.00;20.70;;;;;;5356194;26;20220;-71
2024/04/17 09:01:36;;;;;;;2.10;1.02;;;4.10;22.30;;;;;;5389098;26;20721;-71
2024/04/17 09:04:07;;;;;;;1.80;0.73;;;4.10;20.90;;;;;;5359414;26;20799;-72
2024/04/17 09:06:33;;;;;;;4.55;0.90;;;4.20;21.00;;;;;;5390168;26;20268;-72
2024/04/17 09:09:04;;;;;;;3.25;0.90;;;4.00;20.70;;;;;;5357580;26;20344;-70
2024/04/17 09:11:31;;;;;;;1.70;0.77;;;3.90;21.90;;;;;;5359244;26;20248;-72
2024/04/17 09:13:57;;;;;;;3.25;1.02;;;4.10;22.20;;;;;;5391705;26;20286;-71
2024/04/17 09:16:22;;;;;;;2.30;1.10;;;4.10;20.50;;;;;;5357949;26;20241;-72
2024/04/17 09:18:48;;;;;;;3.60;1.43;;;3.90;20.60;;;;;;5386549;26;20448;-71
2024/04/17 09:21:14;;;;;;;2.92;1.50;;;3.70;21.80;;;;;;5385903;26;20236;-71
2024/04/17 09:23:39;;;;;;;3.47;1.80;;;3.60;23.40;;;;;;5383845;26;20552;-71
2024/04/17 09:26:13;;;;;;;2.00;1.03;;;3.80;25.90;;;;;;5352978;26;20271;-70
2024/04/17 09:28:38;;;;;;;2.38;1.10;;;3.90;25.00;;;;;;5354577;26;20233;-71
2024/04/17 09:31:05;;;;;;;2.20;1.07;;;4.00;21.20;;;;;;5384322;26;20267;-70
2024/04/17 09:33:31;;;;;;;2.20;1.30;;;4.40;22.30;;;;;;5388100;26;20619;-72
2024/04/17 09:36:00;;;;;;;2.10;1.10;;;4.90;23.40;;;;;;5359009;26;20346;-71
2024/04/17 09:38:26;;;;;;;2.08;1.10;;;5.90;21.20;;;;;;5358914;26;20235;-71
2024/04/17 09:40:52;;;;;;;2.00;1.00;;;6.80;11.90;;;;;;5390814;26;20398;-70
2024/04/17 09:43:24;;;;;;;2.00;1.20;;;6.90;4.00;;;;;;5390865;26;20256;-72
2024/04/17 09:46:06;;;;;;;2.27;1.30;;;7.70;4.90;;;;;;5358508;26;20446;-72
2024/04/17 09:48:36;;;;;;;2.03;1.17;;;8.40;1.00;;;;;;5359661;26;20566;-71
2024/04/17 09:51:06;;;;;;;4.10;1.80;;;8.10;1.00;;;;;;5391004;26;20446;-71
2024/04/17 09:53:48;;;;;;;2.80;1.47;;;7.70;1.00;;;;;;5390379;26;20499;-70
2024/04/17 09:56:15;;;;;;;2.40;1.40;;;7.40;1.10;;;;;;5360921;26;20914;-69
2024/04/17 09:58:46;;;;;;;3.07;1.93;;;7.30;2.00;;;;;;5360315;26;20458;-71
2024/04/17 10:01:13;;;;;;;2.73;1.40;;;7.30;4.20;;;;;;5359366;26;20794;-70
2024/04/17 10:03:41;;;;;;;3.50;1.57;;;7.40;3.60;;;;;;5389878;26;20455;-70
2024/04/17 10:06:08;;;;;;;3.27;1.80;;;7.30;4.20;;;;;;5389897;26;20446;-69
2024/04/17 10:08:35;;;;;;;3.17;1.60;;;7.10;4.50;;;;;;5359785;26;20447;-71
2024/04/17 10:11:03;;;;;;;3.60;2.50;;;6.90;4.00;;;;;;5359324;26;20485;-71
2024/04/17 10:13:28;;;;;;;3.13;2.03;;;6.90;7.30;;;;;;5360173;26;20458;-70
2024/04/17 10:15:54;;;;;;;3.30;2.33;;;6.80;8.40;;;;;;5361024;26;20495;-70
2024/04/17 10:18:21;;;;;;;3.10;2.30;;;6.70;9.60;;;;;;5392300;26;20816;-70
2024/04/17 10:20:47;;;;;;;3.33;2.63;;;6.60;11.90;;;;;;5331511;26;20466;-70
2024/04/17 10:23:14;;;;;;;8.17;2.33;;;6.60;11.50;;;;;;5360207;26;20530;-71
2024/04/17 10:25:47;;;;;;;4.20;2.47;;;6.50;14.20;;;;;;5363275;26;20255;-71
2024/04/17 10:28:21;;;;;;;4.43;2.13;;;6.60;12.60;;;;;;5361452;26;20463;-70
2024/04/17 10:30:48;;;;;;;2.70;1.73;;;6.60;12.60;;;;;;5359235;26;20572;-69
2024/04/17 10:33:30;;;;;;;6.77;2.33;;;6.70;14.00;;;;;;5358466;26;20546;-70
2024/04/17 10:35:59;;;;;;;4.53;2.90;;;6.50;14.00;;;;;;5359471;26;20648;-72
2024/04/17 10:38:30;;;;;;;3.00;2.43;;;6.60;16.00;;;;;;5359865;26;20507;-69
2024/04/17 10:40:57;;;;;;;3.70;2.57;;;6.80;17.00;;;;;;5391767;26;20455;-71
2024/04/17 10:43:23;;;;;;;3.73;2.60;;;6.70;17.00;;;;;;5389917;26;20497;-70
2024/04/17 10:45:56;;;;;;;3.93;2.47;;;6.70;18.30;;;;;;5389999;26;20442;-70
2024/04/17 10:48:22;;;;;;;3.80;2.67;;;6.80;18.30;;;;;;5389779;26;21044;-70
2024/04/17 10:50:49;;;;;;;3.33;3.03;;;7.20;16.30;;;;;;5358689;26;20459;-71
2024/04/17 10:53:16;;;;;;;4.80;3.10;;;7.30;15.40;;;;;;5358304;26;20229;-70
2024/04/17 10:55:42;;;;;;;3.97;2.60;;;7.40;14.40;;;;;;5389654;26;20542;-69
2024/04/17 10:58:10;;;;;;;3.57;3.20;;;7.40;14.90;;;;;;5358723;26;20552;-71
2024/04/17 11:00:35;;;;;;;4.30;3.80;;;7.40;14.50;;;;;;5358454;26;20548;-71
2024/04/17 11:03:01;;;;;;;4.60;3.67;;;7.20;14.70;;;;;;5358185;26;20526;-71
2024/04/17 11:05:27;;;;;;;5.50;3.20;;;7.30;15.80;;;;;;5388760;26;20268;-70
2024/04/17 11:07:57;;;;;;;4.33;3.00;;;7.30;15.10;;;;;;5358348;26;20225;-70
2024/04/17 11:10:22;;;;;;;5.50;4.53;;;7.40;14.00;;;;;;5357730;26;20287;-71
2024/04/17 11:12:48;;;;;;;7.40;5.07;;;7.30;15.60;;;;;;5357724;26;20469;-71
2024/04/17 11:15:14;;;;;;;6.97;4.20;;;7.50;15.20;;;;;;5389086;26;20224;-71
2024/04/17 11:17:43;;;;;;;5.93;4.70;;;7.60;17.60;;;;;;5358082;26;20258;-70
2024/04/17 11:20:10;;;;;;;6.00;4.47;;;7.70;19.70;;;;;;5389963;26;20262;-71
2024/04/17 11:22:36;;;;;;;6.17;4.13;;;7.80;18.70;;;;;;5359629;26;20560;-70
2024/04/17 11:25:04;;;;;;;5.23;4.20;;;7.50;16.40;;;;;;5359235;26;20495;-70
2024/04/17 11:27:30;;;;;;;5.70;4.20;;;;;;;;;;5359417;26;20459;-70
2024/04/17 11:29:57;;;;;;;7.97;3.70;;;8.30;12.60;;;;;;5388051;26;20799;-72
2024/04/17 11:32:24;;;;;;;4.53;3.57;;;9.00;9.90;;;;;;5356682;26;20617;-71
2024/04/17 11:34:50;;;;;;;4.63;3.00;;;9.40;6.10;;;;;;5382973;26;20481;-71
2024/04/17 11:37:15;;;;;;;5.20;3.30;;;10.50;1.10;;;;;;5350999;26;20510;-72
2024/04/17 11:39:41;;;;;;;5.40;3.67;;;10.50;1.00;;;;;;5350293;26;20671;-70
2024/04/17 11:42:09;;;;;;;5.43;3.63;;;10.90;1.00;;;;;;5349521;26;20283;-71
2024/04/17 11:44:37;;;;;;;4.63;3.73;;;11.10;1.00;;;;;;5380484;26;20222;-72
2024/04/17 11:47:07;;;;;;;6.17;4.77;;;11.50;1.00;;;;;;5379746;26;20498;-72
2024/04/17 11:49:33;;;;;;;11.20;4.17;;;11.20;1.00;;;;;;5349821;26;20501;-73
2024/04/17 11:51:59;;;;;;;10.10;4.57;;;10.60;1.00;;;;;;5350588;26;20564;-72
2024/04/17 11:54:25;;;;;;;4.67;3.43;;;10.50;1.00;;;;;;5349992;26;20282;-72
2024/04/17 11:56:50;;;;;;;5.47;4.50;;;10.30;1.00;;;;;;5381481;26;20284;-72
2024/04/17 11:59:16;;;;;;;6.47;3.20;;;9.70;1.00;;;;;;5350617;26;20573;-72
2024/04/17 12:01:42;;;;;;;6.70;4.80;;;9.40;1.00;;;;;;5382080;26;20284;-72
2024/04/17 12:04:07;;;;;;;6.83;5.00;;;9.10;1.00;;;;;;5353467;26;20262;-72
2024/04/17 12:06:33;;;;;;;7.30;4.47;;;8.50;1.00;;;;;;5386419;26;20533;-70
2024/04/17 12:08:58;;;;;;;7.57;4.77;;;8.00;4.70;;;;;;5385389;26;20220;-71
2024/04/17 12:11:24;;;;;;;4.50;3.70;;;7.90;6.60;;;;;;5355678;26;20251;-71
2024/04/17 12:13:49;;;;;;;4.40;4.00;;;8.10;4.70;;;;;;5354579;26;20238;-71
2024/04/17 12:16:15;;;;;;;8.17;4.30;;;8.30;2.60;;;;;;5385354;26;20221;-71
2024/04/17 12:18:41;;;;;;;6.67;4.30;;;8.80;3.10;;;;;;5385010;26;20618;-71
2024/04/17 12:21:06;;;;;;;4.80;3.70;;;9.00;1.00;;;;;;5353612;26;20252;-71
2024/04/17 12:23:35;;;;;;;4.40;3.33;;;9.30;1.00;;;;;;5350346;26;20254;-71
2024/04/17 12:28:46;;;;;;;4.33;3.53;;;10.20;1.00;;;;;;5379739;26;20498;-72
2024/04/17 12:31:11;;;;;;;4.57;3.73;;;10.80;1.00;;;;;;5348036;26;20482;-71
2024/04/17 12:33:37;;;;;;;5.90;4.13;;;11.30;1.00;;;;;;5349430;26;20706;-72
2024/04/17 12:36:07;;;;;;;9.20;4.00;;;10.80;1.00;;;;;;5381389;26;20228;-70
2024/04/17 12:38:33;;;;;;;4.43;2.73;;;10.80;1.00;;;;;;5381524;26;20271;-72
2024/04/17 12:40:59;;;;;;;6.20;3.77;;;10.70;1.00;;;;;;5349472;26;20515;-73
2024/04/17 12:43:24;;;;;;;5.40;3.70;;;11.00;1.00;;;;;;5378847;26;20454;-70
2024/04/17 12:45:52;;;;;;;6.27;3.60;;;11.00;1.00;;;;;;5347551;26;20232;-70
2024/04/17 12:48:18;;;;;;;8.87;4.77;;;10.80;1.00;;;;;;5380013;26;20287;-71
2024/04/17 12:50:47;;;;;;;4.10;2.83;;;9.80;1.00;;;;;;5349941;26;21008;-71
2024/04/17 12:53:12;;;;;;;6.43;3.27;;;9.40;1.00;;;;;;5382045;26;20278;-70
2024/04/17 12:55:38;;;;;;;6.93;4.20;;;9.10;1.00;;;;;;5382392;26;20458;-71
2024/04/17 12:58:04;;;;;;;4.80;3.60;;;8.90;1.50;;;;;;5385668;26;20245;-70